createdAt,value
2019-03-25T00:01:06.955Z,4.30
2019-03-25T00:03:37.797Z,4.40
2019-03-25T00:06:08.509Z,4.40
2019-03-25T00:08:39.294Z,4.40
2019-03-25T00:11:10.006Z,4.40
2019-03-25T00:13:40.675Z,4.40
2019-03-25T00:16:11.273Z,4.40
2019-03-25T00:18:42.088Z,4.30
2019-03-25T00:21:12.754Z,4.30
2019-03-25T00:23:43.431Z,4.20
2019-03-25T00:26:14.062Z,4.30
2019-03-25T00:28:44.727Z,4.30
2019-03-25T00:31:15.388Z,4.30
2019-03-25T00:33:46.302Z,4.20
2019-03-25T00:36:16.994Z,4.30
2019-03-25T00:38:47.774Z,4.30
2019-03-25T00:41:18.470Z,4.30
2019-03-25T00:43:49.094Z,4.30
2019-03-25T00:46:19.690Z,4.30
2019-03-25T00:48:50.408Z,4.30
2019-03-25T00:51:21.123Z,4.30
2019-03-25T00:53:51.807Z,4.30
2019-03-25T00:56:22.571Z,4.20
2019-03-25T00:58:53.318Z,4.30
2019-03-25T01:01:24.011Z,4.20
2019-03-25T01:03:54.685Z,4.30
2019-03-25T01:06:25.289Z,4.20
2019-03-25T01:08:56.194Z,4.20
2019-03-25T01:11:26.919Z,4.20
2019-03-25T01:13:57.634Z,4.20
2019-03-25T01:16:28.392Z,4.20
2019-03-25T01:18:59.010Z,4.20
2019-03-25T01:21:29.618Z,4.10
2019-03-25T01:24:00.406Z,4.10
2019-03-25T01:26:31.382Z,4.10
2019-03-25T01:29:02.075Z,4.00
2019-03-25T01:31:32.916Z,4.00
2019-03-25T01:34:03.544Z,4.00
2019-03-25T01:36:34.116Z,4.00
2019-03-25T01:39:06.573Z,3.90
2019-03-25T01:41:37.383Z,3.90
2019-03-25T01:44:08.101Z,3.90
2019-03-25T01:46:38.905Z,3.90
2019-03-25T01:49:09.540Z,3.90
2019-03-25T01:51:40.293Z,3.90
2019-03-25T01:54:10.942Z,3.90
2019-03-25T01:56:41.551Z,3.80
2019-03-25T01:59:12.261Z,3.80
2019-03-25T02:01:43.244Z,3.80
2019-03-25T02:04:13.863Z,3.70
2019-03-25T02:06:44.447Z,3.60
2019-03-25T02:09:16.285Z,3.60
2019-03-25T02:11:47.124Z,3.70
2019-03-25T02:14:17.757Z,3.70
2019-03-25T02:16:48.425Z,3.70
2019-03-25T02:19:19.086Z,3.70
2019-03-25T02:21:49.706Z,3.70
2019-03-25T02:24:20.441Z,3.70
2019-03-25T02:26:51.208Z,3.70
2019-03-25T02:29:22.144Z,3.70
2019-03-25T02:31:52.974Z,3.60
2019-03-25T02:34:23.807Z,3.60
2019-03-25T02:36:54.432Z,3.60
2019-03-25T02:39:25.264Z,3.60
2019-03-25T02:41:55.902Z,3.60
2019-03-25T02:44:26.610Z,3.50
2019-03-25T02:46:57.310Z,3.50
2019-03-25T02:49:28.212Z,3.40
2019-03-25T02:51:58.969Z,3.50
2019-03-25T02:54:29.605Z,3.50
2019-03-25T02:57:00.216Z,3.50
2019-03-25T02:59:30.987Z,3.50
2019-03-25T03:02:01.602Z,3.50
2019-03-25T03:04:32.404Z,3.50
2019-03-25T03:07:03.204Z,3.50
2019-03-25T03:09:34.187Z,3.50
2019-03-25T03:12:04.782Z,3.50
2019-03-25T03:14:35.465Z,3.50
2019-03-25T03:17:06.182Z,3.50
2019-03-25T03:19:36.884Z,3.50
2019-03-25T03:22:07.680Z,3.50
2019-03-25T03:24:38.427Z,3.50
2019-03-25T03:27:09.095Z,3.50
2019-03-25T03:29:39.783Z,3.50
2019-03-25T03:32:10.506Z,3.50
2019-03-25T03:34:41.245Z,3.50
2019-03-25T03:37:11.911Z,3.40
2019-03-25T03:39:42.586Z,3.50
2019-03-25T03:42:13.183Z,3.40
2019-03-25T03:44:44.143Z,3.40
2019-03-25T03:47:15.171Z,3.30
2019-03-25T03:49:45.796Z,3.20
2019-03-25T03:52:16.884Z,3.20
2019-03-25T03:54:47.732Z,3.20
2019-03-25T03:57:19.611Z,3.30
2019-03-25T03:59:51.004Z,3.30
2019-03-25T04:02:21.654Z,3.30
2019-03-25T04:04:52.362Z,3.30
2019-03-25T04:07:23.043Z,3.30
2019-03-25T04:09:53.802Z,3.30
2019-03-25T04:12:24.494Z,3.20
2019-03-25T04:14:55.186Z,3.20
2019-03-25T04:17:25.842Z,3.10
2019-03-25T04:19:56.640Z,3.10
2019-03-25T04:22:27.322Z,3.00
2019-03-25T04:24:57.934Z,3.10
2019-03-25T04:27:28.702Z,3.10
2019-03-25T04:29:59.433Z,3.10
2019-03-25T04:32:30.137Z,3.10
2019-03-25T04:35:00.831Z,3.20
2019-03-25T04:37:31.514Z,3.10
2019-03-25T04:40:02.155Z,3.10
2019-03-25T04:42:33.007Z,3.10
2019-03-25T04:45:03.753Z,3.10
2019-03-25T04:47:34.521Z,3.10
2019-03-25T04:50:05.533Z,3.20
2019-03-25T04:52:37.337Z,3.20
2019-03-25T04:55:08.556Z,3.20
2019-03-25T04:57:39.287Z,3.20
2019-03-25T05:00:11.929Z,3.20
2019-03-25T05:02:42.622Z,3.20
2019-03-25T05:05:13.519Z,3.20
2019-03-25T05:07:44.266Z,3.20
2019-03-25T05:10:14.978Z,3.20
2019-03-25T05:12:45.689Z,3.30
2019-03-25T05:15:16.498Z,3.30
2019-03-25T05:17:47.500Z,3.30
2019-03-25T05:20:18.207Z,3.30
2019-03-25T05:22:48.862Z,3.30
2019-03-25T05:25:19.485Z,3.40
2019-03-25T05:27:50.142Z,3.50
2019-03-25T05:30:22.922Z,3.60
2019-03-25T05:32:53.166Z,3.50
2019-03-25T05:35:23.878Z,3.60
2019-03-25T05:37:54.497Z,3.70
2019-03-25T05:40:25.193Z,3.70
2019-03-25T05:42:56.873Z,3.80
2019-03-25T05:45:27.568Z,3.80
2019-03-25T05:47:58.269Z,4.00
2019-03-25T05:50:29.074Z,4.10
2019-03-25T05:52:59.710Z,4.20
2019-03-25T05:55:30.457Z,4.20
2019-03-25T05:58:01.175Z,4.40
2019-03-25T06:00:34.421Z,4.40
2019-03-25T06:03:05.139Z,4.40
2019-03-25T06:05:37.028Z,4.40
2019-03-25T06:08:07.738Z,4.30
2019-03-25T06:10:38.529Z,4.50
2019-03-25T06:13:09.197Z,4.60
2019-03-25T06:15:39.829Z,4.70
2019-03-25T06:18:10.496Z,4.70
2019-03-25T06:20:41.125Z,4.70
2019-03-25T06:23:11.775Z,4.90
2019-03-25T06:25:42.460Z,4.90
2019-03-25T06:28:13.207Z,4.90
2019-03-25T06:30:43.870Z,5.00
2019-03-25T06:33:14.518Z,4.90
2019-03-25T06:35:45.199Z,4.90
2019-03-25T06:38:15.905Z,4.90
2019-03-25T06:40:49.122Z,5.00
2019-03-25T06:43:18.991Z,5.20
2019-03-25T06:45:49.693Z,5.40
2019-03-25T06:48:20.346Z,5.50
2019-03-25T06:50:51.203Z,5.50
2019-03-25T06:53:22.943Z,5.50
2019-03-25T06:56:12.438Z,5.90
2019-03-25T06:58:43.148Z,5.90
2019-03-25T07:01:13.962Z,5.90
2019-03-25T07:03:44.775Z,6.00
2019-03-25T07:06:15.589Z,6.10
2019-03-25T07:08:46.221Z,6.10
2019-03-25T07:11:16.962Z,6.20
2019-03-25T07:13:47.648Z,6.40
2019-03-25T07:16:18.371Z,6.50
2019-03-25T07:18:49.014Z,6.50
2019-03-25T07:21:20.617Z,6.70
2019-03-25T07:23:52.182Z,6.70
2019-03-25T07:26:22.978Z,6.50
2019-03-25T07:28:54.585Z,6.80
2019-03-25T07:31:25.486Z,7.00
2019-03-25T07:33:56.178Z,7.10
2019-03-25T07:36:26.793Z,7.50
2019-03-25T07:39:00.082Z,7.10
2019-03-25T07:41:29.942Z,7.30
2019-03-25T07:44:00.679Z,7.50
2019-03-25T07:46:31.426Z,7.60
2019-03-25T07:49:02.061Z,7.70
2019-03-25T07:51:32.761Z,7.90
2019-03-25T07:54:03.529Z,7.90
2019-03-25T07:56:34.224Z,7.60
2019-03-25T07:59:05.147Z,7.60
2019-03-25T08:01:35.956Z,8.00
2019-03-25T08:04:06.573Z,8.10
2019-03-25T08:06:37.412Z,8.20
2019-03-25T08:09:09.226Z,7.80
2019-03-25T08:11:39.974Z,8.10
2019-03-25T08:14:10.796Z,8.30
2019-03-25T08:16:41.450Z,8.60
2019-03-25T08:19:13.322Z,8.60
2019-03-25T08:21:45.243Z,8.60
2019-03-25T08:24:20.236Z,8.20
2019-03-25T08:26:50.963Z,8.40
2019-03-25T08:29:21.622Z,8.40
2019-03-25T08:31:53.190Z,8.40
2019-03-25T08:34:25.812Z,8.10
2019-03-25T08:36:56.609Z,7.80
2019-03-25T08:39:27.185Z,8.00
2019-03-25T08:41:57.991Z,8.30
2019-03-25T08:44:28.747Z,8.50
2019-03-25T08:46:59.390Z,8.50
2019-03-25T08:49:29.958Z,8.80
2019-03-25T08:52:00.726Z,8.80
2019-03-25T08:54:33.309Z,8.50
2019-03-25T08:57:04.067Z,8.60
2019-03-25T08:59:34.833Z,9.20
2019-03-25T09:02:05.633Z,9.10
2019-03-25T09:04:36.716Z,9.40
2019-03-25T09:07:09.073Z,9.80
2019-03-25T09:09:39.859Z,9.90
2019-03-25T09:12:10.517Z,9.60
2019-03-25T09:14:42.500Z,10.10
2019-03-25T09:17:13.377Z,9.30
2019-03-25T09:19:44.033Z,9.60
2019-03-25T09:22:15.074Z,9.80
2019-03-25T09:24:45.840Z,9.80
2019-03-25T09:27:18.628Z,9.90
2019-03-25T09:29:49.317Z,9.80
2019-03-25T09:32:20.129Z,9.60
2019-03-25T09:34:50.865Z,9.90
2019-03-25T09:37:21.546Z,10.20
2019-03-25T09:39:52.318Z,10.30
2019-03-25T09:42:22.916Z,10.30
2019-03-25T09:44:53.614Z,10.10
2019-03-25T09:47:24.237Z,10.10
2019-03-25T09:49:54.925Z,10.60
2019-03-25T09:52:25.608Z,10.80
2019-03-25T09:54:56.282Z,10.70
2019-03-25T09:57:27.054Z,10.10
2019-03-25T09:59:58.725Z,9.80
2019-03-25T10:02:29.733Z,9.60
2019-03-25T10:05:01.464Z,9.50
2019-03-25T10:07:32.174Z,9.50
2019-03-25T10:10:03.022Z,9.50
2019-03-25T10:12:33.818Z,10.00
2019-03-25T10:15:04.793Z,10.20
2019-03-25T10:17:35.408Z,10.80
2019-03-25T10:20:07.465Z,11.30
2019-03-25T10:22:38.543Z,11.40
2019-03-25T10:25:10.421Z,11.20
2019-03-25T10:27:41.108Z,10.40
2019-03-25T10:30:12.618Z,10.10
2019-03-25T10:32:43.404Z,10.10
2019-03-25T10:35:15.294Z,9.90
2019-03-25T10:37:46.077Z,10.00
2019-03-25T10:40:16.953Z,9.60
2019-03-25T10:42:47.650Z,9.90
2019-03-25T10:45:19.318Z,10.10
2019-03-25T10:47:49.947Z,10.30
2019-03-25T10:50:20.752Z,10.10
2019-03-25T10:52:51.527Z,10.00
2019-03-25T10:55:22.290Z,10.00
2019-03-25T10:57:53.012Z,10.30
2019-03-25T11:00:24.202Z,10.70
2019-03-25T11:02:55.063Z,10.70
2019-03-25T11:05:25.710Z,10.80
2019-03-25T11:07:57.434Z,11.30
2019-03-25T11:10:28.126Z,10.90
2019-03-25T11:12:58.982Z,10.70
2019-03-25T11:15:30.617Z,10.60
2019-03-25T11:18:01.186Z,10.40
2019-03-25T11:20:31.769Z,10.50
2019-03-25T11:23:02.675Z,10.90
2019-03-25T11:25:33.295Z,11.10
2019-03-25T11:28:04.093Z,10.70
2019-03-25T11:31:00.352Z,10.40
2019-03-25T11:33:31.084Z,10.50
2019-03-25T11:36:02.826Z,10.70
2019-03-25T11:38:33.760Z,10.70
2019-03-25T11:41:04.468Z,10.50
2019-03-25T11:43:35.090Z,10.40
2019-03-25T11:46:05.794Z,10.20
2019-03-25T11:48:36.454Z,10.30
2019-03-25T11:51:07.342Z,10.20
2019-03-25T11:53:38.223Z,10.20
2019-03-25T11:56:08.813Z,10.30
2019-03-25T11:58:39.494Z,9.90
2019-03-25T12:01:11.284Z,9.80
2019-03-25T12:03:41.922Z,9.90
2019-03-25T12:06:12.599Z,10.00
2019-03-25T12:08:43.229Z,10.10
2019-03-25T12:11:14.019Z,10.20
2019-03-25T12:13:44.709Z,9.90
2019-03-25T12:16:15.287Z,10.00
2019-03-25T12:18:45.908Z,9.60
2019-03-25T12:21:16.590Z,9.60
2019-03-25T12:23:47.250Z,9.60
2019-03-25T12:26:17.898Z,9.40
2019-03-25T12:28:48.633Z,9.40
2019-03-25T12:31:19.573Z,9.30
2019-03-25T12:33:50.249Z,9.30
2019-03-25T12:36:20.977Z,9.40
2019-03-25T12:38:51.574Z,9.30
2019-03-25T12:41:22.344Z,9.30
2019-03-25T12:43:53.054Z,9.50
2019-03-25T12:46:23.817Z,9.50
2019-03-25T12:48:54.503Z,9.50
2019-03-25T12:51:25.293Z,9.50
2019-03-25T12:53:56.176Z,9.60
2019-03-25T12:56:26.942Z,10.10
2019-03-25T12:58:57.619Z,10.40
2019-03-25T13:01:28.559Z,10.40
2019-03-25T13:03:59.573Z,10.30
2019-03-25T13:06:30.733Z,10.30
2019-03-25T13:09:01.675Z,10.00
2019-03-25T13:11:34.018Z,10.10
2019-03-25T13:14:04.971Z,10.50
2019-03-25T13:16:35.697Z,10.90
2019-03-25T13:19:06.382Z,11.20
2019-03-25T13:21:37.123Z,11.40
2019-03-25T13:24:07.930Z,11.50
2019-03-25T13:26:38.625Z,11.70
2019-03-25T13:29:09.323Z,11.50
2019-03-25T13:31:41.273Z,10.80
2019-03-25T13:34:12.122Z,10.40
2019-03-25T13:36:42.816Z,10.10
2019-03-25T13:39:13.383Z,10.10
2019-03-25T13:41:44.030Z,10.70
2019-03-25T13:44:14.653Z,11.20
2019-03-25T13:46:45.390Z,11.40
2019-03-25T13:49:16.022Z,11.30
2019-03-25T13:51:46.795Z,11.20
2019-03-25T13:54:17.453Z,10.70
2019-03-25T13:56:48.154Z,10.60
2019-03-25T13:59:18.916Z,10.00
2019-03-25T14:01:49.706Z,9.90
2019-03-25T14:04:20.410Z,9.90
2019-03-25T14:06:51.195Z,9.80
2019-03-25T14:09:22.814Z,9.60
2019-03-25T14:11:53.586Z,9.30
2019-03-25T14:14:24.164Z,9.00
2019-03-25T14:16:54.916Z,8.90
2019-03-25T14:19:25.512Z,8.50
2019-03-25T14:21:56.180Z,8.30
2019-03-25T14:24:27.380Z,8.20
2019-03-25T14:26:58.060Z,8.10
2019-03-25T14:29:28.787Z,8.00
2019-03-25T14:31:59.621Z,7.80
2019-03-25T14:34:30.377Z,7.70
2019-03-25T14:37:01.081Z,7.60
2019-03-25T14:39:31.737Z,7.60
2019-03-25T14:42:02.385Z,7.70
2019-03-25T14:44:33.078Z,7.90
2019-03-25T14:47:03.722Z,7.50
2019-03-25T14:49:34.442Z,7.20
2019-03-25T14:52:05.113Z,7.00
2019-03-25T14:54:35.806Z,6.80
2019-03-25T14:57:06.511Z,6.80
2019-03-25T14:59:37.150Z,6.80
2019-03-25T15:02:07.830Z,6.80
2019-03-25T15:04:38.529Z,6.90
2019-03-25T15:07:09.322Z,6.80
2019-03-25T15:09:39.982Z,6.70
2019-03-25T15:12:10.832Z,6.70
2019-03-25T15:14:41.686Z,6.70
2019-03-25T15:17:12.323Z,6.70
2019-03-25T15:19:42.888Z,6.70
2019-03-25T15:22:13.575Z,6.60
2019-03-25T15:24:44.513Z,6.70
2019-03-25T15:27:15.206Z,6.60
2019-03-25T15:29:46.014Z,6.60
2019-03-25T15:32:18.696Z,6.70
2019-03-25T15:34:49.449Z,6.70
2019-03-25T15:37:20.175Z,6.70
2019-03-25T15:39:50.779Z,6.70
2019-03-25T15:42:21.398Z,6.60
2019-03-25T15:44:51.995Z,6.60
2019-03-25T15:47:22.929Z,6.60
2019-03-25T15:49:53.707Z,6.60
2019-03-25T15:52:24.566Z,6.70
2019-03-25T15:54:55.354Z,6.70
2019-03-25T15:57:26.087Z,6.70
2019-03-25T15:59:56.814Z,6.70
2019-03-25T16:02:27.591Z,6.70
2019-03-25T16:04:58.158Z,6.60
2019-03-25T16:07:28.749Z,6.70
2019-03-25T16:09:59.530Z,6.60
2019-03-25T16:12:30.303Z,6.60
2019-03-25T16:15:00.903Z,6.60
2019-03-25T16:17:31.630Z,6.60
2019-03-25T16:20:02.434Z,6.60
2019-03-25T16:22:33.176Z,6.60
2019-03-25T16:25:03.983Z,6.60
2019-03-25T16:27:34.613Z,6.50
2019-03-25T16:30:06.263Z,6.50
2019-03-25T16:32:37.958Z,6.40
2019-03-25T16:35:08.821Z,6.30
2019-03-25T16:37:39.554Z,6.20
2019-03-25T16:40:10.417Z,6.10
2019-03-25T16:42:41.247Z,5.90
2019-03-25T16:45:12.818Z,5.90
2019-03-25T16:47:43.515Z,5.70
2019-03-25T16:50:14.322Z,5.60
2019-03-25T16:52:45.034Z,5.50
2019-03-25T16:55:15.657Z,5.40
2019-03-25T16:57:46.505Z,5.40
2019-03-25T17:00:26.996Z,5.30
2019-03-25T17:02:49.694Z,5.30
2019-03-25T17:05:20.574Z,5.30
2019-03-25T17:07:51.308Z,5.30
2019-03-25T17:10:22.254Z,5.20
2019-03-25T17:12:52.962Z,5.20
2019-03-25T17:15:23.653Z,5.20
2019-03-25T17:17:54.313Z,5.10
2019-03-25T17:20:25.044Z,5.10
2019-03-25T17:22:55.737Z,5.10
2019-03-25T17:25:26.580Z,5.10
2019-03-25T17:27:57.309Z,5.10
2019-03-25T17:30:27.982Z,5.10
2019-03-25T17:32:58.715Z,5.20
2019-03-25T17:35:29.417Z,5.30
2019-03-25T17:38:00.181Z,5.20
2019-03-25T17:40:31.011Z,5.10
2019-03-25T17:43:06.537Z,5.00
2019-03-25T17:45:37.169Z,4.60
2019-03-25T17:48:08.090Z,4.40
2019-03-25T17:50:38.792Z,4.20
2019-03-25T17:53:09.578Z,4.20
2019-03-25T17:55:40.451Z,4.20
2019-03-25T17:58:11.317Z,4.10
2019-03-25T18:01:18.720Z,3.80
2019-03-25T18:03:49.626Z,3.80
2019-03-25T18:06:20.286Z,3.80
2019-03-25T18:08:51.048Z,3.90
2019-03-25T18:11:22.900Z,3.90
2019-03-25T18:13:53.745Z,3.90
2019-03-25T18:16:24.428Z,3.80
2019-03-25T18:18:55.263Z,3.90
2019-03-25T18:21:26.100Z,3.70
2019-03-25T18:23:56.890Z,3.70
2019-03-25T18:26:27.875Z,3.70
2019-03-25T18:28:58.672Z,3.70
2019-03-25T18:31:29.333Z,3.70
2019-03-25T18:34:00.026Z,3.60
2019-03-25T18:36:31.934Z,3.60
2019-03-25T18:39:02.641Z,3.30
2019-03-25T18:41:33.885Z,3.20
2019-03-25T18:44:04.726Z,3.00
2019-03-25T18:46:35.447Z,3.00
2019-03-25T18:49:06.163Z,2.90
2019-03-25T18:51:36.968Z,2.90
2019-03-25T18:54:07.767Z,2.80
2019-03-25T18:56:39.490Z,2.80
2019-03-25T18:59:10.640Z,2.90
2019-03-25T19:01:41.383Z,2.90
2019-03-25T19:04:12.309Z,2.90
2019-03-25T19:06:45.713Z,3.00
2019-03-25T19:09:16.464Z,3.00
2019-03-25T19:11:47.237Z,3.00
2019-03-25T19:14:20.509Z,3.10
2019-03-25T19:16:53.125Z,3.10
2019-03-25T19:19:36.020Z,3.00
2019-03-25T19:22:18.967Z,2.90
2019-03-25T19:24:49.879Z,2.80
2019-03-25T19:27:20.648Z,2.70
2019-03-25T19:29:51.462Z,2.70
2019-03-25T19:32:22.216Z,2.60
2019-03-25T19:34:52.934Z,2.60
2019-03-25T19:37:23.970Z,2.50
2019-03-25T19:39:54.705Z,2.50
2019-03-25T19:42:25.580Z,2.50
2019-03-25T19:44:56.316Z,2.40
2019-03-25T19:47:27.007Z,2.40
2019-03-25T19:49:57.797Z,2.30
2019-03-25T19:52:28.580Z,2.30
2019-03-25T19:55:00.465Z,2.40
2019-03-25T19:57:31.268Z,2.40
2019-03-25T20:00:01.988Z,2.40
2019-03-25T20:02:34.088Z,2.30
2019-03-25T20:05:05.489Z,2.40
2019-03-25T20:07:36.355Z,2.30
2019-03-25T20:10:07.829Z,2.30
2019-03-25T20:12:38.866Z,2.40
2019-03-25T20:15:09.793Z,2.40
2019-03-25T20:17:40.510Z,2.30
2019-03-25T20:20:11.483Z,2.40
2019-03-25T20:22:42.261Z,2.50
2019-03-25T20:25:13.119Z,2.40
2019-03-25T20:27:43.874Z,2.40
2019-03-25T20:30:15.348Z,2.30
2019-03-25T20:32:46.037Z,2.40
2019-03-25T20:35:16.746Z,2.40
2019-03-25T20:37:47.408Z,2.40
2019-03-25T20:40:18.191Z,2.20
2019-03-25T20:42:48.943Z,2.10
2019-03-25T20:45:19.909Z,2.20
2019-03-25T20:47:50.619Z,2.20
2019-03-25T20:50:21.384Z,2.20
2019-03-25T20:52:52.251Z,2.10
2019-03-25T20:55:23.048Z,2.00
2019-03-25T20:57:53.882Z,2.00
2019-03-25T21:00:49.090Z,2.10
2019-03-25T21:03:20.137Z,2.00
2019-03-25T21:05:50.931Z,2.00
2019-03-25T21:08:21.660Z,1.90
2019-03-25T21:10:52.523Z,1.90
2019-03-25T21:13:23.313Z,1.90
2019-03-25T21:15:54.188Z,2.00
2019-03-25T21:18:24.989Z,1.90
2019-03-25T21:20:55.889Z,2.00
2019-03-25T21:23:26.801Z,2.00
2019-03-25T21:25:57.645Z,2.00
2019-03-25T21:28:28.425Z,1.90
2019-03-25T21:30:59.172Z,2.00
2019-03-25T21:33:30.056Z,2.00
2019-03-25T21:36:00.816Z,2.00
2019-03-25T21:38:31.641Z,2.00
2019-03-25T21:41:02.927Z,2.10
2019-03-25T21:43:33.758Z,2.10
2019-03-25T21:46:04.629Z,2.10
2019-03-25T21:48:35.616Z,2.10
2019-03-25T21:51:06.384Z,2.00
2019-03-25T21:53:37.100Z,2.00
2019-03-25T21:56:07.943Z,1.90
2019-03-25T21:58:38.661Z,1.90
2019-03-25T22:01:09.388Z,1.80
2019-03-25T22:03:40.224Z,1.70
2019-03-25T22:06:10.916Z,1.70
2019-03-25T22:08:41.674Z,1.60
2019-03-25T22:11:12.446Z,1.60
2019-03-25T22:13:43.062Z,1.50
2019-03-25T22:16:13.820Z,1.40
2019-03-25T22:18:44.507Z,1.30
2019-03-25T22:21:15.186Z,1.40
2019-03-25T22:23:45.906Z,1.30
2019-03-25T22:26:16.618Z,1.30
2019-03-25T22:28:47.382Z,1.30
2019-03-25T22:31:18.130Z,1.30
2019-03-25T22:33:48.887Z,1.30
2019-03-25T22:36:19.494Z,1.30
2019-03-25T22:38:50.149Z,1.30
2019-03-25T22:41:20.818Z,1.30
2019-03-25T22:43:51.598Z,1.30
2019-03-25T22:46:22.332Z,1.30
2019-03-25T22:48:53.003Z,1.30
2019-03-25T22:51:23.681Z,1.30
2019-03-25T22:53:54.313Z,1.30
2019-03-25T22:56:26.145Z,1.30
2019-03-25T22:58:56.859Z,1.30
2019-03-25T23:01:27.626Z,1.40
2019-03-25T23:03:58.379Z,1.50
2019-03-25T23:06:29.218Z,1.50
2019-03-25T23:08:59.951Z,1.60
2019-03-25T23:11:30.598Z,1.60
2019-03-25T23:14:01.289Z,1.50
2019-03-25T23:16:31.965Z,1.50
2019-03-25T23:19:02.704Z,1.50
2019-03-25T23:21:33.638Z,1.50
2019-03-25T23:24:04.406Z,1.50
2019-03-25T23:26:35.089Z,1.50
2019-03-25T23:29:05.858Z,1.60
2019-03-25T23:31:36.650Z,1.60
2019-03-25T23:34:07.324Z,1.60
2019-03-25T23:36:38.079Z,1.60
2019-03-25T23:39:09.053Z,1.50
2019-03-25T23:41:39.642Z,1.50
2019-03-25T23:44:10.290Z,1.40
2019-03-25T23:46:41.029Z,1.40
2019-03-25T23:49:11.818Z,1.30
2019-03-25T23:51:42.552Z,1.30
2019-03-25T23:54:14.414Z,1.30
2019-03-25T23:56:45.054Z,1.30
2019-03-25T23:59:15.785Z,1.40
